sensor_id;sensor_type;location;lat;lon;timestamp;temperature;humidity
4010;DHT22;2019;48.200;11.548;2022-07-18T00:02:21;23.00;42.20
4010;DHT22;2019;48.200;11.548;2022-07-18T00:04:46;23.00;42.40
4010;DHT22;2019;48.200;11.548;2022-07-18T00:07:13;22.90;42.60
4010;DHT22;2019;48.200;11.548;2022-07-18T00:09:42;22.90;42.90
4010;DHT22;2019;48.200;11.548;2022-07-18T00:12:09;22.90;43.30
4010;DHT22;2019;48.200;11.548;2022-07-18T00:14:36;22.80;43.30
4010;DHT22;2019;48.200;11.548;2022-07-18T00:17:02;22.80;43.50
4010;DHT22;2019;48.200;11.548;2022-07-18T00:19:29;22.80;43.80
4010;DHT22;2019;48.200;11.548;2022-07-18T00:21:55;22.70;43.90
4010;DHT22;2019;48.200;11.548;2022-07-18T00:24:20;22.70;44.20
4010;DHT22;2019;48.200;11.548;2022-07-18T00:26:46;22.70;44.40
4010;DHT22;2019;48.200;11.548;2022-07-18T00:29:12;22.60;44.60
4010;DHT22;2019;48.200;11.548;2022-07-18T00:31:38;22.60;44.80
4010;DHT22;2019;48.200;11.548;2022-07-18T00:34:05;22.50;45.00
4010;DHT22;2019;48.200;11.548;2022-07-18T00:36:31;22.50;45.20
4010;DHT22;2019;48.200;11.548;2022-07-18T00:38:57;22.50;45.30
4010;DHT22;2019;48.200;11.548;2022-07-18T00:41:25;22.40;45.40
4010;DHT22;2019;48.200;11.548;2022-07-18T00:43:51;22.40;45.80
4010;DHT22;2019;48.200;11.548;2022-07-18T00:46:21;22.40;46.00
4010;DHT22;2019;48.200;11.548;2022-07-18T00:48:47;22.40;46.40
4010;DHT22;2019;48.200;11.548;2022-07-18T00:51:13;22.40;46.50
4010;DHT22;2019;48.200;11.548;2022-07-18T00:53:38;22.30;46.70
4010;DHT22;2019;48.200;11.548;2022-07-18T00:56:04;22.30;46.90
4010;DHT22;2019;48.200;11.548;2022-07-18T00:58:30;22.30;47.20
4010;DHT22;2019;48.200;11.548;2022-07-18T01:00:56;22.20;47.40
4010;DHT22;2019;48.200;11.548;2022-07-18T01:03:41;22.20;47.60
4010;DHT22;2019;48.200;11.548;2022-07-18T01:06:07;22.20;47.60
4010;DHT22;2019;48.200;11.548;2022-07-18T01:08:32;22.10;47.70
4010;DHT22;2019;48.200;11.548;2022-07-18T01:10:58;22.10;47.80
4010;DHT22;2019;48.200;11.548;2022-07-18T01:13:24;22.10;48.50
4010;DHT22;2019;48.200;11.548;2022-07-18T01:15:50;22.10;48.00
4010;DHT22;2019;48.200;11.548;2022-07-18T01:18:16;22.00;48.00
4010;DHT22;2019;48.200;11.548;2022-07-18T01:20:42;22.00;48.10
4010;DHT22;2019;48.200;11.548;2022-07-18T01:23:07;22.00;48.30
4010;DHT22;2019;48.200;11.548;2022-07-18T01:25:33;22.00;48.20
4010;DHT22;2019;48.200;11.548;2022-07-18T01:27:59;21.90;48.10
4010;DHT22;2019;48.200;11.548;2022-07-18T01:30:24;21.90;48.20
4010;DHT22;2019;48.200;11.548;2022-07-18T01:33:08;21.90;48.20
4010;DHT22;2019;48.200;11.548;2022-07-18T01:35:34;21.90;48.30
4010;DHT22;2019;48.200;11.548;2022-07-18T01:38:01;21.80;48.10
4010;DHT22;2019;48.200;11.548;2022-07-18T01:40:27;21.80;48.20
4010;DHT22;2019;48.200;11.548;2022-07-18T01:42:53;21.80;48.20
4010;DHT22;2019;48.200;11.548;2022-07-18T01:45:19;21.70;48.20
4010;DHT22;2019;48.200;11.548;2022-07-18T01:47:45;21.70;48.20
4010;DHT22;2019;48.200;11.548;2022-07-18T01:50:12;21.70;48.30
4010;DHT22;2019;48.200;11.548;2022-07-18T01:52:38;21.60;48.40
4010;DHT22;2019;48.200;11.548;2022-07-18T01:55:06;21.60;48.60
4010;DHT22;2019;48.200;11.548;2022-07-18T01:57:32;21.60;48.80
4010;DHT22;2019;48.200;11.548;2022-07-18T01:59:58;21.50;48.90
4010;DHT22;2019;48.200;11.548;2022-07-18T02:02:24;21.50;49.20
4010;DHT22;2019;48.200;11.548;2022-07-18T02:04:49;21.50;49.40
4010;DHT22;2019;48.200;11.548;2022-07-18T02:07:41;21.40;49.60
4010;DHT22;2019;48.200;11.548;2022-07-18T02:10:14;21.40;49.60
4010;DHT22;2019;48.200;11.548;2022-07-18T02:12:40;21.40;50.00
4010;DHT22;2019;48.200;11.548;2022-07-18T02:15:07;21.30;50.00
4010;DHT22;2019;48.200;11.548;2022-07-18T02:17:33;21.30;50.20
4010;DHT22;2019;48.200;11.548;2022-07-18T02:19:59;21.30;50.30
4010;DHT22;2019;48.200;11.548;2022-07-18T02:22:25;21.30;50.40
4010;DHT22;2019;48.200;11.548;2022-07-18T02:24:52;21.30;50.50
4010;DHT22;2019;48.200;11.548;2022-07-18T02:27:18;21.20;50.70
4010;DHT22;2019;48.200;11.548;2022-07-18T02:29:45;21.20;50.70
4010;DHT22;2019;48.200;11.548;2022-07-18T02:32:11;21.20;50.70
4010;DHT22;2019;48.200;11.548;2022-07-18T02:34:36;21.10;50.50
4010;DHT22;2019;48.200;11.548;2022-07-18T02:37:03;21.10;50.50
4010;DHT22;2019;48.200;11.548;2022-07-18T02:39:28;21.10;50.50
4010;DHT22;2019;48.200;11.548;2022-07-18T02:41:54;21.10;50.60
4010;DHT22;2019;48.200;11.548;2022-07-18T02:44:20;21.00;50.70
4010;DHT22;2019;48.200;11.548;2022-07-18T02:46:46;21.00;50.80
4010;DHT22;2019;48.200;11.548;2022-07-18T02:49:12;21.00;50.90
4010;DHT22;2019;48.200;11.548;2022-07-18T02:51:53;21.00;51.00
4010;DHT22;2019;48.200;11.548;2022-07-18T02:54:19;20.90;51.10
4010;DHT22;2019;48.200;11.548;2022-07-18T02:56:45;20.90;51.20
4010;DHT22;2019;48.200;11.548;2022-07-18T02:59:11;20.90;51.40
4010;DHT22;2019;48.200;11.548;2022-07-18T03:01:36;20.80;51.40
4010;DHT22;2019;48.200;11.548;2022-07-18T03:04:02;20.80;51.60
4010;DHT22;2019;48.200;11.548;2022-07-18T03:06:28;20.80;52.30
4010;DHT22;2019;48.200;11.548;2022-07-18T03:08:53;20.80;51.60
4010;DHT22;2019;48.200;11.548;2022-07-18T03:11:19;20.80;51.70
4010;DHT22;2019;48.200;11.548;2022-07-18T03:13:45;20.80;51.80
4010;DHT22;2019;48.200;11.548;2022-07-18T03:16:10;20.70;51.90
4010;DHT22;2019;48.200;11.548;2022-07-18T03:18:36;20.70;52.00
4010;DHT22;2019;48.200;11.548;2022-07-18T03:21:01;20.70;52.10
4010;DHT22;2019;48.200;11.548;2022-07-18T03:23:27;20.70;52.20
4010;DHT22;2019;48.200;11.548;2022-07-18T03:25:53;20.60;52.30
4010;DHT22;2019;48.200;11.548;2022-07-18T03:28:18;20.60;52.40
4010;DHT22;2019;48.200;11.548;2022-07-18T03:30:44;20.60;52.60
4010;DHT22;2019;48.200;11.548;2022-07-18T03:33:09;20.50;52.60
4010;DHT22;2019;48.200;11.548;2022-07-18T03:35:35;20.50;52.70
4010;DHT22;2019;48.200;11.548;2022-07-18T03:38:01;20.50;52.80
4010;DHT22;2019;48.200;11.548;2022-07-18T03:40:26;20.50;53.30
4010;DHT22;2019;48.200;11.548;2022-07-18T03:42:52;20.50;53.30
4010;DHT22;2019;48.200;11.548;2022-07-18T03:45:18;20.40;53.30
4010;DHT22;2019;48.200;11.548;2022-07-18T03:47:43;20.40;53.30
4010;DHT22;2019;48.200;11.548;2022-07-18T03:50:09;20.40;53.20
4010;DHT22;2019;48.200;11.548;2022-07-18T03:52:34;20.40;53.20
4010;DHT22;2019;48.200;11.548;2022-07-18T03:55:00;20.40;53.20
4010;DHT22;2019;48.200;11.548;2022-07-18T03:57:27;20.30;53.10
4010;DHT22;2019;48.200;11.548;2022-07-18T03:59:53;20.30;53.10
4010;DHT22;2019;48.200;11.548;2022-07-18T04:02:18;20.30;53.10
4010;DHT22;2019;48.200;11.548;2022-07-18T04:04:45;20.30;53.20
4010;DHT22;2019;48.200;11.548;2022-07-18T04:07:11;20.30;53.20
4010;DHT22;2019;48.200;11.548;2022-07-18T04:09:36;20.30;53.30
4010;DHT22;2019;48.200;11.548;2022-07-18T04:12:02;20.30;53.30
4010;DHT22;2019;48.200;11.548;2022-07-18T04:14:28;20.30;53.30
4010;DHT22;2019;48.200;11.548;2022-07-18T04:16:54;20.30;53.30
4010;DHT22;2019;48.200;11.548;2022-07-18T04:19:19;20.30;53.40
4010;DHT22;2019;48.200;11.548;2022-07-18T04:21:45;20.30;53.30
4010;DHT22;2019;48.200;11.548;2022-07-18T04:24:11;20.30;54.00
4010;DHT22;2019;48.200;11.548;2022-07-18T04:26:37;20.30;53.40
4010;DHT22;2019;48.200;11.548;2022-07-18T04:29:03;20.30;53.50
4010;DHT22;2019;48.200;11.548;2022-07-18T04:31:29;20.30;53.50
4010;DHT22;2019;48.200;11.548;2022-07-18T04:33:54;20.30;53.40
4010;DHT22;2019;48.200;11.548;2022-07-18T04:36:20;20.40;53.90
4010;DHT22;2019;48.200;11.548;2022-07-18T04:38:46;20.30;53.00
4010;DHT22;2019;48.200;11.548;2022-07-18T04:41:12;20.40;52.80
4010;DHT22;2019;48.200;11.548;2022-07-18T04:43:37;20.40;52.60
4010;DHT22;2019;48.200;11.548;2022-07-18T04:46:03;20.40;52.50
4010;DHT22;2019;48.200;11.548;2022-07-18T04:48:29;20.40;52.30
4010;DHT22;2019;48.200;11.548;2022-07-18T04:50:54;20.40;52.20
4010;DHT22;2019;48.200;11.548;2022-07-18T04:53:20;20.40;52.10
4010;DHT22;2019;48.200;11.548;2022-07-18T04:55:46;20.50;52.10
4010;DHT22;2019;48.200;11.548;2022-07-18T04:58:11;20.50;51.90
4010;DHT22;2019;48.200;11.548;2022-07-18T05:00:37;20.60;51.80
4010;DHT22;2019;48.200;11.548;2022-07-18T05:03:03;20.60;51.70
4010;DHT22;2019;48.200;11.548;2022-07-18T05:05:29;20.70;51.60
4010;DHT22;2019;48.200;11.548;2022-07-18T05:07:55;20.70;51.40
4010;DHT22;2019;48.200;11.548;2022-07-18T05:10:23;20.70;51.40
4010;DHT22;2019;48.200;11.548;2022-07-18T05:12:52;20.70;51.40
4010;DHT22;2019;48.200;11.548;2022-07-18T05:15:20;20.80;51.40
4010;DHT22;2019;48.200;11.548;2022-07-18T05:17:47;20.80;51.30
4010;DHT22;2019;48.200;11.548;2022-07-18T05:20:15;20.90;51.30
4010;DHT22;2019;48.200;11.548;2022-07-18T05:22:42;20.90;51.20
4010;DHT22;2019;48.200;11.548;2022-07-18T05:25:08;21.00;51.20
4010;DHT22;2019;48.200;11.548;2022-07-18T05:27:35;21.00;51.20
4010;DHT22;2019;48.200;11.548;2022-07-18T05:30:02;21.10;51.10
4010;DHT22;2019;48.200;11.548;2022-07-18T05:32:28;21.10;51.20
4010;DHT22;2019;48.200;11.548;2022-07-18T05:34:54;21.10;51.20
4010;DHT22;2019;48.200;11.548;2022-07-18T05:37:20;21.20;51.20
4010;DHT22;2019;48.200;11.548;2022-07-18T05:39:46;21.20;51.10
4010;DHT22;2019;48.200;11.548;2022-07-18T05:42:11;21.30;51.30
4010;DHT22;2019;48.200;11.548;2022-07-18T05:44:37;21.40;51.40
4010;DHT22;2019;48.200;11.548;2022-07-18T05:47:02;21.40;51.40
4010;DHT22;2019;48.200;11.548;2022-07-18T05:49:28;21.50;51.40
4010;DHT22;2019;48.200;11.548;2022-07-18T05:51:54;21.60;51.50
4010;DHT22;2019;48.200;11.548;2022-07-18T05:54:19;21.60;51.30
4010;DHT22;2019;48.200;11.548;2022-07-18T05:56:49;21.70;51.40
4010;DHT22;2019;48.200;11.548;2022-07-18T05:59:16;21.70;51.30
4010;DHT22;2019;48.200;11.548;2022-07-18T06:01:42;21.80;51.20
4010;DHT22;2019;48.200;11.548;2022-07-18T06:04:08;21.80;51.10
4010;DHT22;2019;48.200;11.548;2022-07-18T06:06:33;21.90;51.30
4010;DHT22;2019;48.200;11.548;2022-07-18T06:08:59;22.00;51.20
4010;DHT22;2019;48.200;11.548;2022-07-18T06:11:25;22.00;51.40
4010;DHT22;2019;48.200;11.548;2022-07-18T06:13:51;22.10;51.20
4010;DHT22;2019;48.200;11.548;2022-07-18T06:16:16;22.20;51.20
4010;DHT22;2019;48.200;11.548;2022-07-18T06:18:42;22.20;51.00
4010;DHT22;2019;48.200;11.548;2022-07-18T06:21:08;22.30;50.80
4010;DHT22;2019;48.200;11.548;2022-07-18T06:23:34;22.40;50.60
4010;DHT22;2019;48.200;11.548;2022-07-18T06:26:01;22.40;50.50
4010;DHT22;2019;48.200;11.548;2022-07-18T06:28:27;22.50;50.50
4010;DHT22;2019;48.200;11.548;2022-07-18T06:30:56;22.60;50.60
4010;DHT22;2019;48.200;11.548;2022-07-18T06:33:23;22.60;50.40
4010;DHT22;2019;48.200;11.548;2022-07-18T06:35:48;22.70;50.50
4010;DHT22;2019;48.200;11.548;2022-07-18T06:38:15;22.80;50.30
4010;DHT22;2019;48.200;11.548;2022-07-18T06:40:41;22.90;50.10
4010;DHT22;2019;48.200;11.548;2022-07-18T06:43:07;23.00;50.70
4010;DHT22;2019;48.200;11.548;2022-07-18T06:45:33;23.00;49.70
4010;DHT22;2019;48.200;11.548;2022-07-18T06:47:59;23.10;49.40
4010;DHT22;2019;48.200;11.548;2022-07-18T06:50:25;23.10;49.40
4010;DHT22;2019;48.200;11.548;2022-07-18T06:52:51;23.20;49.30
4010;DHT22;2019;48.200;11.548;2022-07-18T06:55:16;23.30;49.20
4010;DHT22;2019;48.200;11.548;2022-07-18T06:57:43;23.30;49.00
4010;DHT22;2019;48.200;11.548;2022-07-18T07:00:10;23.40;48.90
4010;DHT22;2019;48.200;11.548;2022-07-18T07:02:44;23.50;49.10
4010;DHT22;2019;48.200;11.548;2022-07-18T07:05:10;23.60;49.10
4010;DHT22;2019;48.200;11.548;2022-07-18T07:07:37;23.60;48.90
4010;DHT22;2019;48.200;11.548;2022-07-18T07:10:03;23.70;48.40
4010;DHT22;2019;48.200;11.548;2022-07-18T07:12:29;23.80;48.20
4010;DHT22;2019;48.200;11.548;2022-07-18T07:14:55;23.90;47.70
4010;DHT22;2019;48.200;11.548;2022-07-18T07:17:21;23.90;47.50
4010;DHT22;2019;48.200;11.548;2022-07-18T07:19:46;24.00;47.70
4010;DHT22;2019;48.200;11.548;2022-07-18T07:22:12;24.10;47.70
4010;DHT22;2019;48.200;11.548;2022-07-18T07:24:37;24.20;47.40
4010;DHT22;2019;48.200;11.548;2022-07-18T07:27:05;24.20;47.30
4010;DHT22;2019;48.200;11.548;2022-07-18T07:29:31;24.30;47.30
4010;DHT22;2019;48.200;11.548;2022-07-18T07:31:56;24.40;47.30
4010;DHT22;2019;48.200;11.548;2022-07-18T07:34:22;24.50;47.50
4010;DHT22;2019;48.200;11.548;2022-07-18T07:36:48;24.60;47.50
4010;DHT22;2019;48.200;11.548;2022-07-18T07:39:13;24.70;47.10
4010;DHT22;2019;48.200;11.548;2022-07-18T07:41:39;24.80;46.50
4010;DHT22;2019;48.200;11.548;2022-07-18T07:44:05;24.80;46.20
4010;DHT22;2019;48.200;11.548;2022-07-18T07:46:30;24.90;46.00
4010;DHT22;2019;48.200;11.548;2022-07-18T07:48:56;25.00;45.90
4010;DHT22;2019;48.200;11.548;2022-07-18T07:51:21;25.20;45.80
4010;DHT22;2019;48.200;11.548;2022-07-18T07:53:47;25.30;45.20
4010;DHT22;2019;48.200;11.548;2022-07-18T07:56:12;25.40;44.90
4010;DHT22;2019;48.200;11.548;2022-07-18T07:58:38;25.50;44.30
4010;DHT22;2019;48.200;11.548;2022-07-18T08:01:04;25.60;43.80
4010;DHT22;2019;48.200;11.548;2022-07-18T08:03:29;25.70;42.00
4010;DHT22;2019;48.200;11.548;2022-07-18T08:05:56;25.80;41.30
4010;DHT22;2019;48.200;11.548;2022-07-18T08:08:21;25.90;40.50
4010;DHT22;2019;48.200;11.548;2022-07-18T08:10:47;26.00;40.10
4010;DHT22;2019;48.200;11.548;2022-07-18T08:13:13;26.10;40.20
4010;DHT22;2019;48.200;11.548;2022-07-18T08:15:39;26.10;39.50
4010;DHT22;2019;48.200;11.548;2022-07-18T08:18:05;26.20;39.20
4010;DHT22;2019;48.200;11.548;2022-07-18T08:20:31;26.40;39.30
4010;DHT22;2019;48.200;11.548;2022-07-18T08:22:59;26.50;39.00
4010;DHT22;2019;48.200;11.548;2022-07-18T08:25:27;26.50;38.60
4010;DHT22;2019;48.200;11.548;2022-07-18T08:27:52;26.70;37.80
4010;DHT22;2019;48.200;11.548;2022-07-18T08:30:19;26.80;37.80
4010;DHT22;2019;48.200;11.548;2022-07-18T08:32:44;26.90;37.30
4010;DHT22;2019;48.200;11.548;2022-07-18T08:35:10;26.90;37.10
4010;DHT22;2019;48.200;11.548;2022-07-18T08:37:35;27.00;37.20
4010;DHT22;2019;48.200;11.548;2022-07-18T08:40:01;27.10;36.60
4010;DHT22;2019;48.200;11.548;2022-07-18T08:42:28;27.30;35.90
4010;DHT22;2019;48.200;11.548;2022-07-18T08:44:55;27.40;35.60
4010;DHT22;2019;48.200;11.548;2022-07-18T08:47:22;27.50;34.90
4010;DHT22;2019;48.200;11.548;2022-07-18T08:49:49;27.60;34.50
4010;DHT22;2019;48.200;11.548;2022-07-18T08:52:16;27.70;33.30
4010;DHT22;2019;48.200;11.548;2022-07-18T08:54:42;27.70;32.90
4010;DHT22;2019;48.200;11.548;2022-07-18T08:57:08;27.80;32.30
4010;DHT22;2019;48.200;11.548;2022-07-18T08:59:34;27.80;32.40
4010;DHT22;2019;48.200;11.548;2022-07-18T09:01:59;27.90;32.60
4010;DHT22;2019;48.200;11.548;2022-07-18T09:07:01;28.10;31.70
4010;DHT22;2019;48.200;11.548;2022-07-18T09:09:26;28.20;31.70
4010;DHT22;2019;48.200;11.548;2022-07-18T09:11:54;28.30;32.00
4010;DHT22;2019;48.200;11.548;2022-07-18T09:14:47;28.40;31.50
4010;DHT22;2019;48.200;11.548;2022-07-18T09:17:18;28.60;31.30
4010;DHT22;2019;48.200;11.548;2022-07-18T09:22:51;28.70;30.50
4010;DHT22;2019;48.200;11.548;2022-07-18T09:25:18;28.80;30.20
4010;DHT22;2019;48.200;11.548;2022-07-18T09:27:51;28.90;30.00
4010;DHT22;2019;48.200;11.548;2022-07-18T09:30:31;28.90;29.90
4010;DHT22;2019;48.200;11.548;2022-07-18T09:35:31;28.90;29.90
4010;DHT22;2019;48.200;11.548;2022-07-18T09:38:07;28.90;29.60
4010;DHT22;2019;48.200;11.548;2022-07-18T09:40:48;29.00;29.90
4010;DHT22;2019;48.200;11.548;2022-07-18T09:43:15;29.10;29.50
4010;DHT22;2019;48.200;11.548;2022-07-18T09:45:43;29.20;29.80
4010;DHT22;2019;48.200;11.548;2022-07-18T09:48:11;29.30;29.80
4010;DHT22;2019;48.200;11.548;2022-07-18T09:50:40;29.40;29.40
4010;DHT22;2019;48.200;11.548;2022-07-18T09:55:33;29.70;29.30
4010;DHT22;2019;48.200;11.548;2022-07-18T09:58:07;29.80;29.20
4010;DHT22;2019;48.200;11.548;2022-07-18T10:00:37;29.90;29.10
4010;DHT22;2019;48.200;11.548;2022-07-18T10:03:04;30.10;29.20
4010;DHT22;2019;48.200;11.548;2022-07-18T10:05:35;30.20;29.10
4010;DHT22;2019;48.200;11.548;2022-07-18T10:08:04;30.30;28.80
4010;DHT22;2019;48.200;11.548;2022-07-18T10:10:31;30.40;28.60
4010;DHT22;2019;48.200;11.548;2022-07-18T10:12:59;30.50;28.40
4010;DHT22;2019;48.200;11.548;2022-07-18T10:15:27;30.40;28.20
4010;DHT22;2019;48.200;11.548;2022-07-18T10:17:54;30.40;27.90
4010;DHT22;2019;48.200;11.548;2022-07-18T10:20:41;30.30;27.80
4010;DHT22;2019;48.200;11.548;2022-07-18T10:23:10;30.30;28.60
4010;DHT22;2019;48.200;11.548;2022-07-18T10:25:38;30.40;29.30
4010;DHT22;2019;48.200;11.548;2022-07-18T10:28:07;30.50;29.00
4010;DHT22;2019;48.200;11.548;2022-07-18T10:30:46;30.60;28.70
4010;DHT22;2019;48.200;11.548;2022-07-18T10:33:36;30.80;28.20
4010;DHT22;2019;48.200;11.548;2022-07-18T10:36:10;30.90;28.20
4010;DHT22;2019;48.200;11.548;2022-07-18T10:38:37;31.10;28.30
4010;DHT22;2019;48.200;11.548;2022-07-18T10:41:10;31.20;29.20
4010;DHT22;2019;48.200;11.548;2022-07-18T10:43:38;31.30;28.90
4010;DHT22;2019;48.200;11.548;2022-07-18T10:46:05;31.30;29.60
4010;DHT22;2019;48.200;11.548;2022-07-18T10:51:06;31.50;29.50
4010;DHT22;2019;48.200;11.548;2022-07-18T10:53:55;31.60;29.30
4010;DHT22;2019;48.200;11.548;2022-07-18T10:58:58;31.80;28.20
4010;DHT22;2019;48.200;11.548;2022-07-18T11:01:25;31.80;28.10
4010;DHT22;2019;48.200;11.548;2022-07-18T11:04:30;31.80;28.50
4010;DHT22;2019;48.200;11.548;2022-07-18T11:07:10;31.90;28.20
4010;DHT22;2019;48.200;11.548;2022-07-18T11:12:24;32.10;28.00
4010;DHT22;2019;48.200;11.548;2022-07-18T11:15:04;32.20;27.70
4010;DHT22;2019;48.200;11.548;2022-07-18T11:17:56;32.30;27.80
4010;DHT22;2019;48.200;11.548;2022-07-18T11:22:23;32.40;27.70
4010;DHT22;2019;48.200;11.548;2022-07-18T11:24:49;32.40;28.00
4010;DHT22;2019;48.200;11.548;2022-07-18T11:27:16;32.50;28.00
4010;DHT22;2019;48.200;11.548;2022-07-18T11:29:42;32.60;27.40
4010;DHT22;2019;48.200;11.548;2022-07-18T11:32:08;32.50;26.90
4010;DHT22;2019;48.200;11.548;2022-07-18T11:34:33;32.40;26.50
4010;DHT22;2019;48.200;11.548;2022-07-18T11:36:59;32.40;27.00
4010;DHT22;2019;48.200;11.548;2022-07-18T11:39:32;32.50;27.20
4010;DHT22;2019;48.200;11.548;2022-07-18T11:41:58;32.60;27.30
4010;DHT22;2019;48.200;11.548;2022-07-18T11:44:23;32.70;27.30
4010;DHT22;2019;48.200;11.548;2022-07-18T11:47:07;32.80;27.00
4010;DHT22;2019;48.200;11.548;2022-07-18T11:49:34;32.90;27.20
4010;DHT22;2019;48.200;11.548;2022-07-18T11:52:00;32.90;27.10
4010;DHT22;2019;48.200;11.548;2022-07-18T11:54:26;32.90;27.20
4010;DHT22;2019;48.200;11.548;2022-07-18T11:56:54;33.00;26.90
4010;DHT22;2019;48.200;11.548;2022-07-18T11:59:20;33.10;26.70
4010;DHT22;2019;48.200;11.548;2022-07-18T12:01:47;33.10;26.70
4010;DHT22;2019;48.200;11.548;2022-07-18T12:04:19;33.20;26.70
4010;DHT22;2019;48.200;11.548;2022-07-18T12:06:46;33.20;26.60
4010;DHT22;2019;48.200;11.548;2022-07-18T12:09:12;33.30;26.60
4010;DHT22;2019;48.200;11.548;2022-07-18T12:11:38;33.30;26.40
4010;DHT22;2019;48.200;11.548;2022-07-18T12:19:03;33.40;26.20
4010;DHT22;2019;48.200;11.548;2022-07-18T12:24:41;33.30;25.80
4010;DHT22;2019;48.200;11.548;2022-07-18T12:35:27;33.30;25.60
4010;DHT22;2019;48.200;11.548;2022-07-18T12:38:05;33.20;25.40
4010;DHT22;2019;48.200;11.548;2022-07-18T12:40:54;33.20;25.70
4010;DHT22;2019;48.200;11.548;2022-07-18T12:45:52;33.20;26.50
4010;DHT22;2019;48.200;11.548;2022-07-18T12:48:18;33.20;26.30
4010;DHT22;2019;48.200;11.548;2022-07-18T12:50:44;33.40;26.40
4010;DHT22;2019;48.200;11.548;2022-07-18T12:53:11;33.40;25.90
4010;DHT22;2019;48.200;11.548;2022-07-18T12:55:37;33.40;26.00
4010;DHT22;2019;48.200;11.548;2022-07-18T12:58:03;33.40;26.00
4010;DHT22;2019;48.200;11.548;2022-07-18T13:00:31;33.40;26.00
4010;DHT22;2019;48.200;11.548;2022-07-18T13:02:58;33.60;26.00
4010;DHT22;2019;48.200;11.548;2022-07-18T13:05:28;33.60;26.00
4010;DHT22;2019;48.200;11.548;2022-07-18T13:07:54;33.70;26.00
4010;DHT22;2019;48.200;11.548;2022-07-18T13:10:20;33.80;26.10
4010;DHT22;2019;48.200;11.548;2022-07-18T13:12:45;33.90;25.80
4010;DHT22;2019;48.200;11.548;2022-07-18T13:15:11;34.00;25.70
4010;DHT22;2019;48.200;11.548;2022-07-18T13:17:37;34.10;25.80
4010;DHT22;2019;48.200;11.548;2022-07-18T13:20:03;34.10;25.60
4010;DHT22;2019;48.200;11.548;2022-07-18T13:22:29;34.10;25.80
4010;DHT22;2019;48.200;11.548;2022-07-18T13:25:04;34.20;26.00
4010;DHT22;2019;48.200;11.548;2022-07-18T13:27:30;34.30;25.80
4010;DHT22;2019;48.200;11.548;2022-07-18T13:29:56;34.30;25.60
4010;DHT22;2019;48.200;11.548;2022-07-18T13:32:21;34.30;25.20
4010;DHT22;2019;48.200;11.548;2022-07-18T13:34:47;34.30;25.50
4010;DHT22;2019;48.200;11.548;2022-07-18T13:37:12;34.20;25.00
4010;DHT22;2019;48.200;11.548;2022-07-18T13:39:38;34.10;25.30
4010;DHT22;2019;48.200;11.548;2022-07-18T13:42:04;34.10;25.30
4010;DHT22;2019;48.200;11.548;2022-07-18T13:44:31;34.10;25.50
4010;DHT22;2019;48.200;11.548;2022-07-18T13:46:56;34.10;25.50
4010;DHT22;2019;48.200;11.548;2022-07-18T13:49:22;34.10;25.60
4010;DHT22;2019;48.200;11.548;2022-07-18T13:51:48;34.20;25.60
4010;DHT22;2019;48.200;11.548;2022-07-18T13:54:13;34.30;25.80
4010;DHT22;2019;48.200;11.548;2022-07-18T13:56:43;34.30;25.40
4010;DHT22;2019;48.200;11.548;2022-07-18T13:59:09;34.30;25.20
4010;DHT22;2019;48.200;11.548;2022-07-18T14:01:34;34.20;24.90
4010;DHT22;2019;48.200;11.548;2022-07-18T14:04:00;34.20;24.90
4010;DHT22;2019;48.200;11.548;2022-07-18T14:06:25;34.10;25.30
4010;DHT22;2019;48.200;11.548;2022-07-18T14:08:51;34.10;25.50
4010;DHT22;2019;48.200;11.548;2022-07-18T14:11:17;34.20;25.50
4010;DHT22;2019;48.200;11.548;2022-07-18T14:13:42;34.20;25.60
4010;DHT22;2019;48.200;11.548;2022-07-18T14:16:08;34.20;25.50
4010;DHT22;2019;48.200;11.548;2022-07-18T14:18:34;34.20;25.40
4010;DHT22;2019;48.200;11.548;2022-07-18T14:21:00;34.10;25.50
4010;DHT22;2019;48.200;11.548;2022-07-18T14:23:25;34.10;25.50
4010;DHT22;2019;48.200;11.548;2022-07-18T14:25:51;34.00;25.30
4010;DHT22;2019;48.200;11.548;2022-07-18T14:28:17;33.80;25.60
4010;DHT22;2019;48.200;11.548;2022-07-18T14:30:42;33.80;26.20
4010;DHT22;2019;48.200;11.548;2022-07-18T14:33:08;33.70;26.10
4010;DHT22;2019;48.200;11.548;2022-07-18T14:35:33;33.80;26.30
4010;DHT22;2019;48.200;11.548;2022-07-18T14:37:59;33.80;26.20
4010;DHT22;2019;48.200;11.548;2022-07-18T14:40:24;33.80;26.30
4010;DHT22;2019;48.200;11.548;2022-07-18T14:42:50;33.80;26.30
4010;DHT22;2019;48.200;11.548;2022-07-18T14:45:16;33.80;26.50
4010;DHT22;2019;48.200;11.548;2022-07-18T14:47:42;33.80;26.20
4010;DHT22;2019;48.200;11.548;2022-07-18T14:50:08;33.80;26.10
4010;DHT22;2019;48.200;11.548;2022-07-18T14:52:36;33.80;26.30
4010;DHT22;2019;48.200;11.548;2022-07-18T14:55:02;33.80;26.40
4010;DHT22;2019;48.200;11.548;2022-07-18T14:57:28;33.80;26.10
4010;DHT22;2019;48.200;11.548;2022-07-18T14:59:54;33.80;26.30
4010;DHT22;2019;48.200;11.548;2022-07-18T15:02:19;33.80;26.60
4010;DHT22;2019;48.200;11.548;2022-07-18T15:04:45;33.80;26.70
4010;DHT22;2019;48.200;11.548;2022-07-18T15:07:10;33.80;26.70
4010;DHT22;2019;48.200;11.548;2022-07-18T15:09:36;33.90;26.70
4010;DHT22;2019;48.200;11.548;2022-07-18T15:12:02;33.90;26.70
4010;DHT22;2019;48.200;11.548;2022-07-18T15:14:28;33.90;26.20
4010;DHT22;2019;48.200;11.548;2022-07-18T15:16:54;33.90;26.00
4010;DHT22;2019;48.200;11.548;2022-07-18T15:19:20;33.80;26.10
4010;DHT22;2019;48.200;11.548;2022-07-18T15:21:52;33.80;26.10
4010;DHT22;2019;48.200;11.548;2022-07-18T15:24:18;33.80;26.40
4010;DHT22;2019;48.200;11.548;2022-07-18T15:26:44;33.70;26.40
4010;DHT22;2019;48.200;11.548;2022-07-18T15:29:09;33.80;26.50
4010;DHT22;2019;48.200;11.548;2022-07-18T15:31:35;33.70;26.20
4010;DHT22;2019;48.200;11.548;2022-07-18T15:34:01;33.60;26.10
4010;DHT22;2019;48.200;11.548;2022-07-18T15:36:26;33.60;26.20
4010;DHT22;2019;48.200;11.548;2022-07-18T15:38:52;33.60;26.50
4010;DHT22;2019;48.200;11.548;2022-07-18T15:41:18;33.60;26.60
4010;DHT22;2019;48.200;11.548;2022-07-18T15:43:46;33.60;26.50
4010;DHT22;2019;48.200;11.548;2022-07-18T15:46:12;33.50;26.60
4010;DHT22;2019;48.200;11.548;2022-07-18T15:48:42;33.50;26.50
4010;DHT22;2019;48.200;11.548;2022-07-18T15:51:08;33.40;26.50
4010;DHT22;2019;48.200;11.548;2022-07-18T15:53:34;33.50;26.50
4010;DHT22;2019;48.200;11.548;2022-07-18T15:56:00;33.40;26.60
4010;DHT22;2019;48.200;11.548;2022-07-18T15:58:25;33.40;26.60
4010;DHT22;2019;48.200;11.548;2022-07-18T16:00:51;33.40;26.70
4010;DHT22;2019;48.200;11.548;2022-07-18T16:03:17;33.40;26.90
4010;DHT22;2019;48.200;11.548;2022-07-18T16:05:42;33.40;26.90
4010;DHT22;2019;48.200;11.548;2022-07-18T16:08:08;33.40;26.80
4010;DHT22;2019;48.200;11.548;2022-07-18T16:10:34;33.40;26.70
4010;DHT22;2019;48.200;11.548;2022-07-18T16:12:59;33.30;26.60
4010;DHT22;2019;48.200;11.548;2022-07-18T16:15:25;33.20;26.50
4010;DHT22;2019;48.200;11.548;2022-07-18T16:17:51;33.20;26.90
4010;DHT22;2019;48.200;11.548;2022-07-18T16:20:17;33.20;26.70
4010;DHT22;2019;48.200;11.548;2022-07-18T16:22:43;33.10;26.70
4010;DHT22;2019;48.200;11.548;2022-07-18T16:25:10;33.10;26.80